• Join FlightAware (Why Join?)
  • Login
  • US Flag 
Trick or treat! (Boo!!) 
10:31AM EDT


 

Airport Tracker/Info


-or-


 

Live Flight TrackerFlight Track Log ✈ EJA641 ✈ 29-Apr-2013 ✈ KSOP - KSAV

Flight Track Log - Related Links

Times and Time Zones

All times are in EDT time to prevent confusion due to time zone crossing. See the EJA641 flight status page for this flight to view local times or setup timezone preferences in your user account.

Time Position Orientation Groundspeed Altitude Reporting Facility
EDT Latitude Longitude Course Direction KTS MPH feet Rate Location/Type
11:42AM 35.1953 -79.4247 214° Southwest 257 296 8,300  Level Washington Center
11:43AM 35.1419 -79.4681 214° Southwest 254 292 11,600 3,360 Climbing Washington Center
11:44AM 35.0656 -79.4997 199° South 261 300 15,100 2,760 Climbing Washington Center
11:45AM 35.0019 -79.5347 204° Southwest 272 313 17,200 1,920 Climbing Washington Center
11:46AM 34.9294 -79.5819 208° Southwest 284 327 19,000 1,920 Climbing Washington Center
11:48AM 34.8025 -79.6564 206° Southwest 319 367 22,200 1,920 Climbing Jacksonville Center
11:49AM 34.7222 -79.7025 205° Southwest 319 367 24,000 900 Climbing Jacksonville Center
11:50AM 34.6317 -79.7511 204° Southwest 336 387 24,000  Level Jacksonville Center
11:51AM 34.5414 -79.8075 207° Southwest 349 402 24,000  Level Jacksonville Center
11:52AM 34.4489 -79.8686 209° Southwest 354 407 24,000  Level Jacksonville Center
11:53AM 34.3564 -79.9222 206° Southwest 359 413 24,000  Level Jacksonville Center
11:54AM 34.2658 -79.9781 207° Southwest 364 419 24,000  Level Jacksonville Center
11:55AM 34.1753 -80.0286 205° Southwest 364 419 24,000  Level Jacksonville Center
11:56AM 34.0847 -80.0819 206° Southwest 364 419 24,000  Level Jacksonville Center
11:57AM 33.9942 -80.1347 206° Southwest 364 419 24,000  Level Jacksonville Center
11:58AM 33.9033 -80.1903 207° Southwest 364 419 24,000  Level Jacksonville Center
11:59AM 33.8128 -80.2406 205° Southwest 364 419 24,000  Level Jacksonville Center
12:00PM 33.7200 -80.2958 206° Southwest 364 419 24,000  Level Jacksonville Center
12:01PM 33.6314 -80.3483 206° Southwest 364 419 24,000  Level Jacksonville Center
12:02PM 33.5386 -80.4031 206° Southwest 364 419 24,000  Level Jacksonville Center
12:03PM 33.4478 -80.4556 206° Southwest 364 419 24,000 -120 Level Jacksonville Center
12:04PM 33.3547 -80.5078 205° Southwest 364 419 23,800 -900 Descending Jacksonville Center
12:05PM 33.2597 -80.5600 205° Southwest 369 425 22,200 -1,620 Descending Jacksonville Center
12:06PM 33.1689 -80.6144 207° Southwest 369 425 20,600 -1,620 Descending Jacksonville Center
12:07PM 33.0800 -80.6664 206° Southwest 369 425 19,000 -1,440 Descending Jacksonville Center
12:08PM 32.9933 -80.7156 205° Southwest 358 412 17,800 -1,500 Descending Jacksonville Center
12:09PM 32.9064 -80.7647 205° Southwest 358 412 16,000 -1,860 Descending Jacksonville Center
12:10PM 32.8217 -80.8136 206° Southwest 353 406 14,100 -1,980 Descending Jacksonville Center
12:11PM 32.7389 -80.8600 205° Southwest 341 392 12,100 -1,980 Descending Jacksonville Center
12:12PM 32.6625 -80.9036 206° Southwest 319 367 10,200 -1,680 Descending Jacksonville Center
12:13PM 32.6006 -80.9494 212° Southwest 289 333 8,800 -1,260 Descending Jacksonville Center
12:14PM 32.5406 -80.9903 210° Southwest 272 313 7,700 -1,200 Descending Jacksonville Center
12:15PM 32.4703 -81.0383 210° Southwest 272 313 6,400 -1,260 Descending Jacksonville Center
12:16PM 32.4061 -81.0814 210° Southwest 272 313 5,200 -1,200 Descending Jacksonville Center
12:17PM 32.3483 -81.1244 212° Southwest 261 300 4,100 -1,080 Descending Jacksonville Center
12:18PM 32.2906 -81.1650 211° Southwest 248 285 3,100 -1,080 Descending Jacksonville Center
12:19PM 32.2344 -81.2003 208° Southwest 248 285 2,000 -1,080 Descending Jacksonville Center
12:20PM 32.1783 -81.2039 183° South 221 254 1,000 -900 Descending Jacksonville Center
12:21PM 32.1386 -81.2044 181° South 177 204 200 8,460 Descending Jacksonville Center
12:22PM 32.0803 -81.2081 183° South 177 204 18,000 17,760 Climbing Jacksonville Center